Terminal Aerodrome Forecast
Issued by NWS

Home | Current Version | Previous Version | Text Only | Print | Product List | Glossary On
Versions: 1 2 3 4 5 6 7 8 9 10 11 12 13 14 15
900
FTUS44 KSJT 220520
TAFBBD
TAF
KBBD 220520Z 2206/2306 03006KT 3SM BR OVC004
     FM221200 04005KT 4SM -FZRA BR OVC005
     FM222100 03005KT P6SM OVC008
     FM230200 VRB04KT 5SM BR BKN005
      AMD NOT SKED=

USA.gov is the U.S. government's official web portal to all federal, state and local government web resources and services.